www.cux-wetter.de
Wetterdaten: Sonntag, 03.11.2013
Datum Zeit Temp. A. Feuchte A. Luftdruck Regen Wind Richtung Richtung Sonnenschein Solar Taupunkt Windchill Windben
03.11.2013 00:00 10,9 C 93 % 995,5 hPa 0,0 l/m 19,6 km/h (3 Bft) SW 220 0 min 0 W/m 9,8 C 4,6 C 19,6 km/h (3 Bft)
03.11.2013 00:15 11,0 C 93 % 995,5 hPa 0,0 l/m 17,0 km/h (3 Bft) SW 215 0 min 0 W/m 9,9 C 5,6 C 17,0 km/h (3 Bft)
03.11.2013 00:30 11,1 C 93 % 994,5 hPa 0,3 l/m 26,6 km/h (4 Bft) SW 220 0 min 0 W/m 10,0 C 2,9 C 26,6 km/h (4 Bft)
03.11.2013 00:45 11,2 C 93 % 994,5 hPa 0,0 l/m 20,6 km/h (4 Bft) SW 215 0 min 0 W/m 10,1 C 4,7 C 20,6 km/h (4 Bft)
03.11.2013 01:00 11,3 C 93 % 994,5 hPa 0,0 l/m 21,9 km/h (4 Bft) SW 225 0 min 0 W/m 10,2 C 4,4 C 21,9 km/h (4 Bft)
03.11.2013 01:15 11,3 C 93 % 994,5 hPa 0,0 l/m 20,8 km/h (4 Bft) SW 230 0 min 0 W/m 10,2 C 4,7 C 20,8 km/h (4 Bft)
03.11.2013 01:30 11,0 C 93 % 993,5 hPa 0,3 l/m 30,7 km/h (5 Bft) SW 235 0 min 0 W/m 9,9 C 1,9 C 30,7 km/h (5 Bft)
03.11.2013 01:45 10,7 C 93 % 994,5 hPa 0,0 l/m 30,9 km/h (5 Bft) W-SW 250 0 min 0 W/m 9,6 C 1,5 C 30,9 km/h (5 Bft)
03.11.2013 02:00 10,6 C 93 % 993,5 hPa 0,0 l/m 26,5 km/h (4 Bft) W-SW 250 0 min 0 W/m 9,5 C 2,3 C 26,5 km/h (4 Bft)
03.11.2013 02:15 10,6 C 93 % 993,5 hPa 0,0 l/m 23,8 km/h (4 Bft) W-SW 250 0 min 0 W/m 9,5 C 3,0 C 23,8 km/h (4 Bft)
03.11.2013 02:30 10,7 C 93 % 993,5 hPa 0,0 l/m 16,6 km/h (3 Bft) SW 230 0 min 0 W/m 9,6 C 5,4 C 16,6 km/h (3 Bft)
03.11.2013 02:45 10,8 C 93 % 993,5 hPa 0,0 l/m 27,5 km/h (5 Bft) W-SW 250 0 min 0 W/m 9,7 C 2,3 C 27,5 km/h (5 Bft)
03.11.2013 03:00 10,8 C 93 % 993,5 hPa 0,0 l/m 23,4 km/h (4 Bft) W-SW 250 0 min 0 W/m 9,7 C 3,3 C 23,4 km/h (4 Bft)
03.11.2013 03:15 10,7 C 92 % 993,5 hPa 0,0 l/m 30,3 km/h (5 Bft) W-SW 245 0 min 0 W/m 9,5 C 1,6 C 30,3 km/h (5 Bft)
03.11.2013 03:30 10,7 C 91 % 992,5 hPa 0,0 l/m 22,9 km/h (4 Bft) W-SW 240 0 min 0 W/m 9,3 C 3,3 C 22,9 km/h (4 Bft)
03.11.2013 03:45 10,7 C 91 % 992,5 hPa 0,0 l/m 25,6 km/h (4 Bft) W-SW 245 0 min 0 W/m 9,3 C 2,6 C 25,6 km/h (4 Bft)
03.11.2013 04:00 10,7 C 90 % 992,5 hPa 0,0 l/m 32,7 km/h (5 Bft) W-SW 250 0 min 0 W/m 9,1 C 1,1 C 32,7 km/h (5 Bft)
03.11.2013 04:15 10,6 C 90 % 992,5 hPa 0,0 l/m 31,3 km/h (5 Bft) W-SW 255 0 min 0 W/m 9,0 C 1,2 C 31,3 km/h (5 Bft)
03.11.2013 04:30 10,6 C 90 % 992,5 hPa 0,0 l/m 31,8 km/h (5 Bft) W 260 0 min 0 W/m 9,0 C 1,1 C 31,8 km/h (5 Bft)
03.11.2013 04:45 10,5 C 90 % 992,5 hPa 0,0 l/m 30,0 km/h (5 Bft) W-SW 240 0 min 0 W/m 8,9 C 1,4 C 30,0 km/h (5 Bft)
03.11.2013 05:00 10,4 C 89 % 992,5 hPa 0,0 l/m 37,3 km/h (5 Bft) W-SW 250 0 min 0 W/m 8,7 C -0,1 C 37,3 km/h (5 Bft)
03.11.2013 05:15 10,4 C 89 % 992,5 hPa 0,0 l/m 31,4 km/h (5 Bft) W-SW 250 0 min 0 W/m 8,7 C 0,9 C 31,4 km/h (5 Bft)
03.11.2013 05:30 10,4 C 89 % 992,5 hPa 0,0 l/m 30,7 km/h (5 Bft) W-SW 250 0 min 0 W/m 8,7 C 1,1 C 30,7 km/h (5 Bft)
03.11.2013 05:45 10,3 C 89 % 992,5 hPa 0,0 l/m 35,9 km/h (5 Bft) W-SW 250 0 min 0 W/m 8,6 C -0,0 C 35,9 km/h (5 Bft)
03.11.2013 06:00 10,4 C 88 % 992,5 hPa 0,0 l/m 32,5 km/h (5 Bft) W-SW 250 0 min 0 W/m 8,5 C 0,7 C 32,5 km/h (5 Bft)
03.11.2013 06:15 10,3 C 88 % 992,5 hPa 0,0 l/m 30,6 km/h (5 Bft) W-SW 255 0 min 0 W/m 8,4 C 1,0 C 30,6 km/h (5 Bft)
03.11.2013 06:30 10,2 C 88 % 992,5 hPa 0,0 l/m 30,5 km/h (5 Bft) W-SW 250 0 min 0 W/m 8,3 C 0,8 C 30,5 km/h (5 Bft)
03.11.2013 06:45 10,2 C 88 % 992,5 hPa 0,0 l/m 34,5 km/h (5 Bft) W-SW 250 0 min 0 W/m 8,3 C 0,1 C 34,5 km/h (5 Bft)
03.11.2013 07:00 10,1 C 88 % 992,5 hPa 0,0 l/m 30,2 km/h (5 Bft) W-SW 250 0 min 0 W/m 8,2 C 0,8 C 30,2 km/h (5 Bft)
03.11.2013 07:15 10,0 C 88 % 992,5 hPa 0,0 l/m 30,0 km/h (5 Bft) W-SW 250 0 min 0 W/m 8,1 C 0,7 C 30,0 km/h (5 Bft)
03.11.2013 07:30 9,9 C 88 % 992,5 hPa 0,0 l/m 35,4 km/h (5 Bft) W 260 0 min 0 W/m 8,0 C -0,5 C 35,4 km/h (5 Bft)
03.11.2013 07:45 9,9 C 88 % 992,5 hPa 0,0 l/m 32,0 km/h (5 Bft) W-SW 255 0 min 0 W/m 8,0 C 0,1 C 32,0 km/h (5 Bft)
03.11.2013 08:00 10,0 C 89 % 992,5 hPa 0,0 l/m 37,5 km/h (5 Bft) W 260 0 min 0 W/m 8,3 C -0,7 C 37,5 km/h (5 Bft)
03.11.2013 08:15 10,1 C 88 % 992,5 hPa 0,0 l/m 37,1 km/h (5 Bft) W 260 0 min 0 W/m 8,2 C -0,5 C 37,1 km/h (5 Bft)
03.11.2013 08:30 10,2 C 88 % 992,5 hPa 0,0 l/m 42,9 km/h (6 Bft) W 260 0 min 0 W/m 8,3 C -1,2 C 42,9 km/h (6 Bft)
03.11.2013 08:45 10,4 C 87 % 992,5 hPa 0,0 l/m 37,1 km/h (5 Bft) W 260 0 min 0 W/m 8,3 C -0,1 C 37,1 km/h (5 Bft)
03.11.2013 09:00 10,5 C 85 % 992,5 hPa 0,0 l/m 40,7 km/h (6 Bft) W 265 0 min 0 W/m 8,1 C -0,5 C 40,7 km/h (6 Bft)
03.11.2013 09:15 10,5 C 85 % 992,5 hPa 0,0 l/m 36,0 km/h (5 Bft) W 265 0 min 0 W/m 8,1 C 0,2 C 36,0 km/h (5 Bft)
03.11.2013 09:30 10,4 C 83 % 993,5 hPa 0,0 l/m 43,7 km/h (6 Bft) W 260 0 min 0 W/m 7,6 C -1,0 C 43,7 km/h (6 Bft)
03.11.2013 09:45 10,6 C 83 % 993,5 hPa 0,0 l/m 46,6 km/h (6 Bft) W 265 0 min 0 W/m 7,8 C -1,0 C 46,6 km/h (6 Bft)
03.11.2013 10:00 10,7 C 83 % 993,5 hPa 0,0 l/m 44,8 km/h (6 Bft) W 265 0 min 0 W/m 7,9 C -0,7 C 44,8 km/h (6 Bft)
03.11.2013 10:15 10,8 C 81 % 993,5 hPa 0,0 l/m 46,2 km/h (6 Bft) W 270 0 min 0 W/m 7,7 C -0,7 C 46,2 km/h (6 Bft)
03.11.2013 10:30 10,9 C 81 % 993,5 hPa 0,0 l/m 42,3 km/h (6 Bft) W 265 0 min 0 W/m 7,8 C -0,1 C 42,3 km/h (6 Bft)
03.11.2013 10:45 11,1 C 78 % 993,5 hPa 0,0 l/m 46,6 km/h (6 Bft) W 270 0 min 0 W/m 7,4 C -0,3 C 46,6 km/h (6 Bft)
03.11.2013 11:00 11,2 C 77 % 993,5 hPa 0,0 l/m 52,7 km/h (7 Bft) W 270 0 min 0 W/m 7,3 C -0,7 C 52,7 km/h (7 Bft)
03.11.2013 11:15 11,3 C 77 % 993,5 hPa 0,0 l/m 46,3 km/h (6 Bft) W 270 0 min 0 W/m 7,4 C 0,1 C 46,3 km/h (6 Bft)
03.11.2013 11:30 11,3 C 76 % 993,5 hPa 0,0 l/m 48,6 km/h (6 Bft) W 270 0 min 0 W/m 7,2 C -0,2 C 48,6 km/h (6 Bft)
03.11.2013 11:45 11,3 C 76 % 993,5 hPa 0,0 l/m 51,0 km/h (7 Bft) W 270 0 min 0 W/m 7,2 C -0,4 C 51,0 km/h (7 Bft)
03.11.2013 12:00 11,4 C 74 % 993,5 hPa 0,0 l/m 52,5 km/h (7 Bft) W 275 0 min 0 W/m 6,9 C -0,4 C 52,5 km/h (7 Bft)
03.11.2013 12:15 11,6 C 73 % 993,5 hPa 0,0 l/m 43,4 km/h (6 Bft) W 275 0 min 0 W/m 6,9 C 0,8 C 43,4 km/h (6 Bft)
03.11.2013 12:30 11,6 C 71 % 993,5 hPa 0,0 l/m 50,7 km/h (7 Bft) W 275 0 min 0 W/m 6,5 C 0,1 C 50,7 km/h (7 Bft)
03.11.2013 12:44 11,7 C 71 % 993,5 hPa 0,0 l/m 50,3 km/h (7 Bft) W 275 0 min 0 W/m 6,6 C 0,3 C 50,3 km/h (7 Bft)
03.11.2013 13:00 11,5 C 68 % 993,5 hPa 0,0 l/m 48,3 km/h (6 Bft) W 275 0 min 0 W/m 5,8 C 0,2 C 48,3 km/h (6 Bft)
03.11.2013 13:15 11,6 C 68 % 993,5 hPa 0,0 l/m 50,4 km/h (7 Bft) W-NW 290 0 min 0 W/m 5,9 C 0,1 C 50,4 km/h (7 Bft)
03.11.2013 13:30 11,8 C 67 % 993,5 hPa 0,0 l/m 46,3 km/h (6 Bft) W 275 0 min 0 W/m 5,9 C 0,8 C 46,3 km/h (6 Bft)
03.11.2013 13:45 11,6 C 67 % 993,5 hPa 0,0 l/m 44,7 km/h (6 Bft) W 275 0 min 0 W/m 5,7 C 0,7 C 44,7 km/h (6 Bft)
03.11.2013 14:00 11,5 C 68 % 993,5 hPa 0,0 l/m 48,5 km/h (6 Bft) W 280 0 min 0 W/m 5,8 C 0,1 C 48,5 km/h (6 Bft)
03.11.2013 14:15 11,8 C 66 % 993,5 hPa 0,0 l/m 57,7 km/h (7 Bft) W 275 0 min 0 W/m 5,7 C -0,2 C 57,7 km/h (7 Bft)
03.11.2013 14:29 11,6 C 66 % 993,5 hPa 0,0 l/m 46,8 km/h (6 Bft) W 275 0 min 0 W/m 5,5 C 0,5 C 46,8 km/h (6 Bft)
03.11.2013 14:45 11,7 C 66 % 993,5 hPa 0,0 l/m 44,6 km/h (6 Bft) W 280 0 min 0 W/m 5,6 C 0,8 C 44,6 km/h (6 Bft)
03.11.2013 15:00 11,6 C 68 % 993,5 hPa 0,0 l/m 46,0 km/h (6 Bft) W 275 0 min 0 W/m 5,9 C 0,5 C 46,0 km/h (6 Bft)
03.11.2013 15:15 11,5 C 68 % 993,5 hPa 0,0 l/m 47,8 km/h (6 Bft) W 280 0 min 0 W/m 5,8 C 0,2 C 47,8 km/h (6 Bft)
03.11.2013 15:29 11,2 C 69 % 993,5 hPa 0,0 l/m 46,3 km/h (6 Bft) W 275 0 min 0 W/m 5,7 C -0,1 C 46,3 km/h (6 Bft)
03.11.2013 15:45 11,1 C 71 % 993,5 hPa 0,0 l/m 46,6 km/h (6 Bft) W 280 0 min 0 W/m 6,0 C -0,3 C 46,6 km/h (6 Bft)
03.11.2013 16:00 10,7 C 72 % 993,5 hPa 0,0 l/m 46,8 km/h (6 Bft) W 275 0 min 0 W/m 5,9 C -0,9 C 46,8 km/h (6 Bft)
03.11.2013 16:14 10,6 C 73 % 994,5 hPa 0,0 l/m 47,0 km/h (6 Bft) W 280 0 min 0 W/m 6,0 C -1,1 C 47,0 km/h (6 Bft)
03.11.2013 16:30 10,4 C 74 % 994,5 hPa 0,0 l/m 45,6 km/h (6 Bft) W 280 0 min 0 W/m 6,0 C -1,2 C 45,6 km/h (6 Bft)
03.11.2013 16:45 10,2 C 75 % 994,5 hPa 0,0 l/m 42,5 km/h (6 Bft) W 280 0 min 0 W/m 6,0 C -1,2 C 42,5 km/h (6 Bft)
03.11.2013 17:00 10,1 C 76 % 994,5 hPa 0,0 l/m 42,9 km/h (6 Bft) W 275 0 min 0 W/m 6,1 C -1,4 C 42,9 km/h (6 Bft)
03.11.2013 17:14 9,9 C 77 % 994,5 hPa 0,0 l/m 44,6 km/h (6 Bft) W 275 0 min 0 W/m 6,1 C -1,9 C 44,6 km/h (6 Bft)
03.11.2013 17:30 9,6 C 78 % 994,5 hPa 0,0 l/m 40,4 km/h (6 Bft) W 275 0 min 0 W/m 6,0 C -1,8 C 40,4 km/h (6 Bft)
03.11.2013 17:45 9,4 C 79 % 994,5 hPa 0,0 l/m 39,1 km/h (6 Bft) W 275 0 min 0 W/m 5,9 C -1,9 C 39,1 km/h (6 Bft)
03.11.2013 18:00 9,3 C 80 % 994,5 hPa 0,0 l/m 36,3 km/h (5 Bft) W 275 0 min 0 W/m 6,0 C -1,6 C 36,3 km/h (5 Bft)
03.11.2013 18:15 9,3 C 81 % 994,5 hPa 0,0 l/m 41,7 km/h (6 Bft) W 275 0 min 0 W/m 6,2 C -2,4 C 41,7 km/h (6 Bft)
03.11.2013 18:30 9,1 C 81 % 994,5 hPa 0,0 l/m 35,9 km/h (5 Bft) W 265 0 min 0 W/m 6,0 C -1,8 C 35,9 km/h (5 Bft)
03.11.2013 18:45 8,9 C 82 % 994,5 hPa 0,0 l/m 39,1 km/h (6 Bft) W 260 0 min 0 W/m 6,0 C -2,6 C 39,1 km/h (6 Bft)
03.11.2013 19:00 8,8 C 83 % 994,5 hPa 0,0 l/m 39,3 km/h (6 Bft) W 260 0 min 0 W/m 6,1 C -2,8 C 39,3 km/h (6 Bft)
03.11.2013 19:15 8,6 C 84 % 994,5 hPa 0,0 l/m 39,8 km/h (6 Bft) W 270 0 min 0 W/m 6,1 C -3,2 C 39,8 km/h (6 Bft)
03.11.2013 19:30 8,7 C 85 % 994,5 hPa 0,0 l/m 43,6 km/h (6 Bft) W 270 0 min 0 W/m 6,3 C -3,6 C 43,6 km/h (6 Bft)
03.11.2013 19:45 8,5 C 85 % 994,5 hPa 0,3 l/m 37,9 km/h (6 Bft) W 270 0 min 0 W/m 6,1 C -3,0 C 37,9 km/h (6 Bft)
03.11.2013 20:00 8,4 C 85 % 994,5 hPa 0,0 l/m 35,4 km/h (5 Bft) W 265 0 min 0 W/m 6,0 C -2,7 C 35,4 km/h (5 Bft)
03.11.2013 20:15 8,3 C 85 % 994,5 hPa 0,0 l/m 36,9 km/h (5 Bft) W 265 0 min 0 W/m 5,9 C -3,1 C 36,9 km/h (5 Bft)
03.11.2013 20:30 8,4 C 85 % 994,5 hPa 0,0 l/m 44,3 km/h (6 Bft) W 280 0 min 0 W/m 6,0 C -4,1 C 44,3 km/h (6 Bft)
03.11.2013 20:45 8,4 C 85 % 994,5 hPa 0,0 l/m 40,0 km/h (6 Bft) W 270 0 min 0 W/m 6,0 C -3,5 C 40,0 km/h (6 Bft)
03.11.2013 21:00 8,4 C 85 % 994,5 hPa 0,0 l/m 35,8 km/h (5 Bft) W 265 0 min 0 W/m 6,0 C -2,8 C 35,8 km/h (5 Bft)
03.11.2013 21:15 8,4 C 83 % 994,5 hPa 0,0 l/m 42,2 km/h (6 Bft) W 270 0 min 0 W/m 5,7 C -3,8 C 42,2 km/h (6 Bft)
03.11.2013 21:30 8,5 C 84 % 994,5 hPa 0,0 l/m 43,8 km/h (6 Bft) W 270 0 min 0 W/m 6,0 C -3,9 C 43,8 km/h (6 Bft)
03.11.2013 21:45 8,5 C 85 % 994,5 hPa 0,0 l/m 40,0 km/h (6 Bft) W 270 0 min 0 W/m 6,1 C -3,3 C 40,0 km/h (6 Bft)
03.11.2013 22:00 8,4 C 85 % 994,5 hPa 0,0 l/m 46,1 km/h (6 Bft) W 275 0 min 0 W/m 6,0 C -4,3 C 46,1 km/h (6 Bft)
03.11.2013 22:15 8,4 C 85 % 994,5 hPa 0,0 l/m 37,0 km/h (5 Bft) W 260 0 min 0 W/m 6,0 C -3,0 C 37,0 km/h (5 Bft)
03.11.2013 22:30 8,4 C 84 % 994,5 hPa 0,0 l/m 38,6 km/h (6 Bft) W 270 0 min 0 W/m 5,9 C -3,3 C 38,6 km/h (6 Bft)
03.11.2013 22:45 8,5 C 82 % 994,5 hPa 0,0 l/m 37,7 km/h (5 Bft) W 270 0 min 0 W/m 5,6 C -3,0 C 37,7 km/h (5 Bft)
03.11.2013 23:00 8,6 C 82 % 994,5 hPa 0,0 l/m 38,1 km/h (6 Bft) W 270 0 min 0 W/m 5,7 C -2,9 C 38,1 km/h (6 Bft)
03.11.2013 23:15 8,5 C 82 % 994,5 hPa 0,0 l/m 34,5 km/h (5 Bft) W 270 0 min 0 W/m 5,6 C -2,4 C 34,5 km/h (5 Bft)
03.11.2013 23:30 8,4 C 83 % 994,5 hPa 0,0 l/m 35,9 km/h (5 Bft) W 270 0 min 0 W/m 5,7 C -2,8 C 35,9 km/h (5 Bft)
03.11.2013 23:45 8,2 C 83 % 994,5 hPa 0,0 l/m 36,3 km/h (5 Bft) W 265 0 min 0 W/m 5,5 C -3,2 C 36,3 km/h (5 Bft)
_ Min-Zeit 23:45 14:15 03:30 - 02:30 - - - - 14:29 22:00 02:30
Minimum _ 8,2 C 66 % 992,5 hPa - 16,6 km/h (3 Bft) - - - - 5,5 C -4,3 C 16,6 km/h (3 Bft)
_ Max-Zeit 13:30 00:00 00:00 00:30 14:15 - - 00:00 00:00 01:00 00:15 14:15
Maximum _ 11,8 C 93 % 995,5 hPa 0,3 l/m 57,7 km/h
W (7 Bft)
- - 0 min 0 W/m 10,2 C 5,6 C 57,7 km/h
W (7 Bft)
Durchschnitt _ 10,2 C 83 % 993,7 hPa #0,9 l/m 38,2 km/h (6 Bft) W - #0 min. 0 W/m 7,3 C -0,3 C 38,2 km/h (6 Bft)
copyright by Holger Just